Aérodrome :
LOGIN :

S'inscrire | Disclaimer

   EN    FR    IT 

 










Légende :    VFR   VFR Marginal   IFR   IFR Intensif   IFR Très Intensif
Visi : 
Plafond : 
>= 8 km
>= 3000ft
5 à 8 km
1000 à 3000 ft
1500m à 5 km
500 à 1000 ft
800 à 1500m
200 à 500 ft
< 800m
< 200 ft
Symboles :   Orages  Brouillard  Fortes neiges  Fortes précipitations  Vent > 20 kt
SIGMETs :   Divers  Orages  Givrage  Turbulence  Onde Orograph.  Cendres Volcan.






- Altitude de l'aérodrome : 1558 ft
- Code IATA : IOA


LGIO - Ioannina

DERNIER METAR :
  • 171450Z AUTO VRB03KT //// // ////// 16/02 Q1023 RE//

METARs EXPIRÉS :
  • 171420Z AUTO 34004KT 280V010 //// // ////// 16/02 Q1023 RE//
  • 171350Z AUTO VRB03KT //// // ////// 16/01 Q1023 RE//
  • 171320Z AUTO 35004KT 230V010 //// // ////// 16/01 Q1024 RE//
  • 171250Z AUTO 30005KT 220V330 //// // ////// 15/01 Q1024 RE//
  • 171220Z AUTO 32004KT 280V030 //// // ////// 15/00 Q1024 RE//

TAF TAF LGIO
Valide du 17 à 15h jusqu'au 18 à 00h UTC


171400Z 1715/1724 VRB03KT 9999 FEW025



MET'MAP, la Météo Aéronautique d'un coup d'oeil ! - Copyright ORBIFLY Décembre 2007 - Disclaimer

ORBIFLY MET'MAP TEAM :

Programmation & Développement : Alexandra Zaïnal
Sur une idée originale de : Baudouin d'Aumeries
Assistance à la programmation : Marc-Olivier Méhu
Soutien technique & logistique : Manuel Goepfert

Contact : metmap@orbifly.com




SOURCES & CREDITS :

   NOAA